createdAt,value
2018-11-26T00:01:48.110Z,35.00
2018-11-26T00:06:50.783Z,35.67
2018-11-26T00:11:53.398Z,36.13
2018-11-26T00:16:55.974Z,37.70
2018-11-26T00:21:58.591Z,35.87
2018-11-26T00:27:01.183Z,36.33
2018-11-26T00:32:06.786Z,38.70
2018-11-26T00:37:09.358Z,37.87
2018-11-26T00:42:11.994Z,37.00
2018-11-26T00:47:14.543Z,38.50
2018-11-26T00:52:17.107Z,37.50
2018-11-26T00:57:19.701Z,37.87
2018-11-26T01:02:22.311Z,38.70
2018-11-26T01:07:24.903Z,41.33
2018-11-26T01:12:27.494Z,37.20
2018-11-26T01:17:30.080Z,39.03
2018-11-26T01:22:32.678Z,39.17
2018-11-26T01:27:35.240Z,39.07
2018-11-26T01:32:37.879Z,38.27
2018-11-26T01:37:40.526Z,37.20
2018-11-26T01:42:43.195Z,37.33
2018-11-26T01:47:45.751Z,39.30
2018-11-26T01:52:48.344Z,36.00
2018-11-26T01:57:51.063Z,34.97
2018-11-26T02:02:53.943Z,36.67
2018-11-26T02:07:56.591Z,36.90
2018-11-26T02:12:59.202Z,37.00
2018-11-26T02:18:01.790Z,37.10
2018-11-26T02:23:04.449Z,37.20
2018-11-26T02:28:07.014Z,36.97
2018-11-26T02:33:09.653Z,37.93
2018-11-26T02:38:12.208Z,37.37
2018-11-26T02:43:14.811Z,36.27
2018-11-26T02:48:17.400Z,35.17
2018-11-26T02:53:19.998Z,33.83
2018-11-26T02:58:22.587Z,32.57
2018-11-26T03:03:25.215Z,31.77
2018-11-26T03:08:27.838Z,31.43
2018-11-26T03:13:30.429Z,28.00
2018-11-26T03:18:33.038Z,26.67
2018-11-26T03:23:35.673Z,27.93
2018-11-26T03:28:38.246Z,28.03
2018-11-26T03:33:40.845Z,27.23
2018-11-26T03:38:51.622Z,25.27
2018-11-26T03:43:54.272Z,25.90
2018-11-26T03:48:56.829Z,25.67
2018-11-26T03:53:59.425Z,24.30
2018-11-26T03:59:02.010Z,25.17
2018-11-26T04:04:04.618Z,25.93
2018-11-26T04:09:07.751Z,26.37
2018-11-26T04:14:10.388Z,25.67
2018-11-26T04:19:12.986Z,25.77
2018-11-26T04:24:15.562Z,26.93
2018-11-26T04:29:18.150Z,27.77
2018-11-26T04:34:20.767Z,29.13
2018-11-26T04:39:23.373Z,27.23
2018-11-26T04:44:25.987Z,24.50
2018-11-26T04:49:28.692Z,25.93
2018-11-26T04:54:31.344Z,27.30
2018-11-26T04:59:33.922Z,27.67
2018-11-26T05:04:36.542Z,28.37
2018-11-26T05:09:39.347Z,26.50
2018-11-26T05:14:41.934Z,28.27
2018-11-26T05:19:44.531Z,27.87
2018-11-26T05:24:47.182Z,27.93
2018-11-26T05:29:49.837Z,29.97
2018-11-26T05:34:52.505Z,30.67
2018-11-26T05:39:55.057Z,30.97
2018-11-26T05:44:57.620Z,32.43
2018-11-26T05:50:00.430Z,31.97
2018-11-26T05:55:03.302Z,31.60
2018-11-26T06:00:13.793Z,33.03
2018-11-26T06:05:16.726Z,33.07
2018-11-26T06:10:19.510Z,32.73
2018-11-26T06:15:22.328Z,33.03
2018-11-26T06:20:25.099Z,33.33
2018-11-26T06:25:27.788Z,31.73
2018-11-26T06:30:30.444Z,33.10
2018-11-26T06:35:33.066Z,32.57
2018-11-26T06:40:35.839Z,33.30
2018-11-26T06:45:38.478Z,32.07
2018-11-26T06:50:41.118Z,32.40
2018-11-26T06:55:43.743Z,33.03
2018-11-26T07:00:46.342Z,32.53
2018-11-26T07:05:49.229Z,32.50
2018-11-26T07:10:51.838Z,32.73
2018-11-26T07:15:54.513Z,31.73
2018-11-26T07:20:57.167Z,34.00
2018-11-26T07:26:00.490Z,32.90
2018-11-26T07:31:03.179Z,33.67
2018-11-26T07:36:11.160Z,33.17
2018-11-26T07:41:08.470Z,34.20
2018-11-26T07:46:11.100Z,34.73
2018-11-26T07:51:14.027Z,35.07
2018-11-26T07:56:16.654Z,34.07
2018-11-26T08:01:19.286Z,32.97
2018-11-26T08:06:22.157Z,35.27
2018-11-26T08:11:24.796Z,34.70
2018-11-26T08:16:27.526Z,37.93
2018-11-26T08:21:30.214Z,38.27
2018-11-26T08:26:32.914Z,37.33
2018-11-26T08:31:35.679Z,35.77
2018-11-26T08:36:43.608Z,35.10
2018-11-26T08:41:52.951Z,34.97
2018-11-26T08:46:55.707Z,35.23
2018-11-26T08:51:58.303Z,37.40
2018-11-26T08:57:01.139Z,33.03
2018-11-26T09:02:08.250Z,32.63
2018-11-26T09:07:10.960Z,31.13
2018-11-26T09:12:13.583Z,28.93
2018-11-26T09:17:16.223Z,29.67
2018-11-26T09:22:19.050Z,28.10
2018-11-26T09:27:21.756Z,29.33
2018-11-26T09:32:24.379Z,28.60
2018-11-26T09:37:27.144Z,25.57
2018-11-26T09:42:29.760Z,27.93
2018-11-26T09:47:32.364Z,26.60
2018-11-26T09:52:35.039Z,27.43
2018-11-26T09:57:37.816Z,27.90
2018-11-26T10:02:41.878Z,27.40
2018-11-26T10:07:44.663Z,27.10
2018-11-26T10:12:47.333Z,25.37
2018-11-26T10:17:50.247Z,24.83
2018-11-26T10:22:53.390Z,25.47
2018-11-26T10:27:56.020Z,24.50
2018-11-26T10:32:58.823Z,24.50
2018-11-26T10:38:01.460Z,24.77
2018-11-26T10:43:04.386Z,20.80
2018-11-26T10:48:07.169Z,22.27
2018-11-26T10:53:09.948Z,21.20
2018-11-26T10:58:12.669Z,22.87
2018-11-26T11:03:15.367Z,23.23
2018-11-26T11:08:18.022Z,24.07
2018-11-26T11:13:20.726Z,24.10
2018-11-26T11:18:23.330Z,22.50
2018-11-26T11:23:26.060Z,23.37
2018-11-26T11:28:28.736Z,20.97
2018-11-26T11:33:31.358Z,21.67
2018-11-26T11:38:34.195Z,22.67
2018-11-26T11:43:36.981Z,21.90
2018-11-26T11:48:39.583Z,21.47
2018-11-26T11:53:42.507Z,18.73
2018-11-26T11:58:45.130Z,20.57
2018-11-26T12:03:47.755Z,19.50
2018-11-26T12:08:50.393Z,21.33
2018-11-26T12:13:53.057Z,22.33
2018-11-26T12:18:55.652Z,22.83
2018-11-26T12:23:58.343Z,18.70
2018-11-26T12:29:00.998Z,21.13
2018-11-26T12:34:03.993Z,18.13
2018-11-26T12:39:08.611Z,19.37
2018-11-26T12:44:11.232Z,20.17
2018-11-26T12:49:13.955Z,19.77
2018-11-26T12:54:16.632Z,19.47
2018-11-26T12:59:19.283Z,20.97
2018-11-26T13:04:22.171Z,18.83
2018-11-26T13:09:24.729Z,19.53
2018-11-26T13:14:27.431Z,21.93
2018-11-26T13:19:30.216Z,20.43
2018-11-26T13:24:32.836Z,19.03
2018-11-26T13:29:35.460Z,20.17
2018-11-26T13:34:38.373Z,19.83
2018-11-26T13:39:40.829Z,18.50
2018-11-26T13:44:43.395Z,21.00
2018-11-26T13:49:46.335Z,18.47
2018-11-26T13:54:48.789Z,17.63
2018-11-26T13:59:51.409Z,18.57
2018-11-26T14:04:54.017Z,16.90
2018-11-26T14:09:56.696Z,18.20
2018-11-26T14:14:59.360Z,17.47
2018-11-26T14:20:02.067Z,17.90
2018-11-26T14:25:06.451Z,18.73
2018-11-26T14:30:15.033Z,19.17
2018-11-26T14:35:17.697Z,18.10
2018-11-26T14:40:23.651Z,18.80
2018-11-26T14:45:26.320Z,18.13
2018-11-26T14:50:29.028Z,17.70
2018-11-26T14:55:35.431Z,17.63
2018-11-26T15:00:38.181Z,18.60
2018-11-26T15:05:40.800Z,19.13
2018-11-26T15:10:43.433Z,18.97
2018-11-26T15:15:46.065Z,17.40
2018-11-26T15:20:48.766Z,15.83
2018-11-26T15:25:51.438Z,16.73
2018-11-26T15:30:54.092Z,15.50
2018-11-26T15:35:56.689Z,15.33
2018-11-26T15:40:59.410Z,17.07
2018-11-26T15:46:02.030Z,17.70
2018-11-26T15:51:05.224Z,17.30
2018-11-26T15:56:07.954Z,17.57
2018-11-26T16:01:10.560Z,18.07
2018-11-26T16:06:13.217Z,16.40
2018-11-26T16:11:15.821Z,18.10
2018-11-26T16:16:18.424Z,16.00
2018-11-26T16:21:21.044Z,16.97
2018-11-26T16:26:23.693Z,15.93
2018-11-26T16:31:26.389Z,15.40
2018-11-26T16:36:29.071Z,15.90
2018-11-26T16:41:31.677Z,15.53
2018-11-26T16:46:34.234Z,16.17
2018-11-26T16:51:36.900Z,15.63
2018-11-26T16:56:40.030Z,15.23
2018-11-26T17:01:42.835Z,16.17
2018-11-26T17:06:45.592Z,13.97
2018-11-26T17:11:48.404Z,14.60
2018-11-26T17:16:51.076Z,14.80
2018-11-26T17:21:53.944Z,13.63
2018-11-26T17:26:56.669Z,14.93
2018-11-26T17:32:00.004Z,14.53
2018-11-26T17:37:02.733Z,12.60
2018-11-26T17:42:05.961Z,13.67
2018-11-26T17:47:08.661Z,14.13
2018-11-26T17:52:11.389Z,13.80
2018-11-26T17:57:14.052Z,13.50
2018-11-26T18:02:16.727Z,12.47
2018-11-26T18:07:19.647Z,13.03
2018-11-26T18:12:22.215Z,13.33
2018-11-26T18:17:24.839Z,14.13
2018-11-26T18:22:27.477Z,12.53
2018-11-26T18:27:30.132Z,13.77
2018-11-26T18:32:32.696Z,12.80
2018-11-26T18:37:35.430Z,12.33
2018-11-26T18:42:38.027Z,13.10
2018-11-26T18:47:40.640Z,11.90
2018-11-26T18:52:44.020Z,13.77
2018-11-26T18:57:46.797Z,13.17
2018-11-26T19:02:50.230Z,13.63
2018-11-26T19:07:52.754Z,15.47
2018-11-26T19:12:59.923Z,14.03
2018-11-26T19:18:25.776Z,15.00
2018-11-26T19:23:28.372Z,14.53
2018-11-26T19:28:31.069Z,16.33
2018-11-26T19:33:33.983Z,18.27
2018-11-26T19:38:36.731Z,18.97
2018-11-26T19:43:39.340Z,18.83
2018-11-26T19:48:42.022Z,20.47
2018-11-26T19:53:44.580Z,19.63
2018-11-26T19:58:47.153Z,21.63
2018-11-26T20:03:58.707Z,22.37
2018-11-26T20:09:01.355Z,21.93
2018-11-26T20:14:04.889Z,21.93
2018-11-26T20:19:07.471Z,23.97
2018-11-26T20:24:10.070Z,22.43
2018-11-26T20:29:12.693Z,25.10
2018-11-26T20:34:15.269Z,23.17
2018-11-26T20:39:17.884Z,22.47
2018-11-26T20:44:20.553Z,23.43
2018-11-26T20:49:23.217Z,22.80
2018-11-26T20:54:25.932Z,21.80
2018-11-26T20:59:28.585Z,22.73
2018-11-26T21:04:31.212Z,22.23
2018-11-26T21:09:33.944Z,22.20
2018-11-26T21:14:36.627Z,23.20
2018-11-26T21:19:39.224Z,22.43
2018-11-26T21:24:41.851Z,23.37
2018-11-26T21:29:44.446Z,21.77
2018-11-26T21:34:47.046Z,23.37
2018-11-26T21:39:53.114Z,25.37
2018-11-26T21:44:55.973Z,24.37
2018-11-26T21:49:58.614Z,24.40
2018-11-26T21:55:01.229Z,23.67
2018-11-26T22:00:25.507Z,24.03
2018-11-26T22:05:29.064Z,22.70
2018-11-26T22:10:31.722Z,22.67
2018-11-26T22:15:34.433Z,22.23
2018-11-26T22:20:37.036Z,22.97
2018-11-26T22:25:39.645Z,21.30
2018-11-26T22:30:42.292Z,20.83
2018-11-26T22:35:44.948Z,22.20
2018-11-26T22:40:47.623Z,22.70
2018-11-26T22:45:50.420Z,21.40
2018-11-26T22:50:53.072Z,20.97
2018-11-26T22:55:55.695Z,20.57
2018-11-26T23:00:58.287Z,19.53
2018-11-26T23:06:00.886Z,19.77
2018-11-26T23:11:03.430Z,20.83
2018-11-26T23:16:06.804Z,19.13
2018-11-26T23:21:09.425Z,19.77
2018-11-26T23:26:12.041Z,20.23
2018-11-26T23:31:14.937Z,20.40
2018-11-26T23:36:17.633Z,22.40
2018-11-26T23:41:20.228Z,20.50
2018-11-26T23:46:22.913Z,21.07
2018-11-26T23:51:25.720Z,19.73
2018-11-26T23:56:28.398Z,21.10
